createdAt,value
2018-03-28T00:01:00.948Z,8.69
2018-03-28T00:03:28.328Z,8.69
2018-03-28T00:05:55.709Z,8.70
2018-03-28T00:08:23.092Z,8.71
2018-03-28T00:10:50.485Z,8.79
2018-03-28T00:13:17.856Z,8.78
2018-03-28T00:15:45.244Z,8.69
2018-03-28T00:18:12.620Z,8.70
2018-03-28T00:20:40.010Z,8.69
2018-03-28T00:23:07.392Z,8.76
2018-03-28T00:25:34.772Z,8.77
2018-03-28T00:28:02.168Z,8.74
2018-03-28T00:30:29.552Z,8.81
2018-03-28T00:32:56.936Z,8.85
2018-03-28T00:35:24.320Z,8.86
2018-03-28T00:37:51.696Z,8.90
2018-03-28T00:40:19.088Z,8.89
2018-03-28T00:42:46.474Z,8.94
2018-03-28T00:45:14.713Z,9.03
2018-03-28T00:47:42.102Z,8.98
2018-03-28T00:50:09.778Z,8.95
2018-03-28T00:52:37.165Z,8.99
2018-03-28T00:55:04.541Z,8.96
2018-03-28T00:57:31.928Z,9.00
2018-03-28T00:59:59.316Z,9.02
2018-03-28T01:02:26.710Z,9.04
2018-03-28T01:04:54.093Z,9.04
2018-03-28T01:07:21.468Z,9.09
2018-03-28T01:09:48.852Z,9.11
2018-03-28T01:12:16.234Z,9.11
2018-03-28T01:14:43.618Z,9.14
2018-03-28T01:17:10.996Z,9.14
2018-03-28T01:19:38.383Z,9.12
2018-03-28T01:22:05.764Z,9.14
2018-03-28T01:24:33.173Z,9.13
2018-03-28T01:27:00.557Z,9.10
2018-03-28T01:29:27.949Z,9.16
2018-03-28T01:31:55.333Z,9.11
2018-03-28T01:34:22.716Z,9.13
2018-03-28T01:36:50.100Z,9.20
2018-03-28T01:39:17.477Z,9.18
2018-03-28T01:41:44.864Z,9.14
2018-03-28T01:44:12.260Z,9.08
2018-03-28T01:46:39.640Z,9.12
2018-03-28T01:49:07.016Z,9.17
2018-03-28T01:51:34.407Z,9.18
2018-03-28T01:54:01.780Z,9.20
2018-03-28T01:56:29.164Z,9.27
2018-03-28T01:58:56.549Z,9.25
2018-03-28T02:01:23.940Z,9.24
2018-03-28T02:03:51.318Z,9.23
2018-03-28T02:06:18.715Z,9.25
2018-03-28T02:08:46.088Z,9.26
2018-03-28T02:11:13.505Z,9.26
2018-03-28T02:13:40.888Z,9.26
2018-03-28T02:16:08.276Z,9.25
2018-03-28T02:18:35.663Z,9.26
2018-03-28T02:21:03.039Z,9.29
2018-03-28T02:23:30.433Z,9.32
2018-03-28T02:25:57.821Z,9.35
2018-03-28T02:28:25.209Z,9.32
2018-03-28T02:30:52.584Z,9.36
2018-03-28T02:33:19.996Z,9.36
2018-03-28T02:35:47.380Z,9.39
2018-03-28T02:38:14.771Z,9.40
2018-03-28T02:40:42.145Z,9.39
2018-03-28T02:43:09.536Z,9.34
2018-03-28T02:45:36.932Z,9.32
2018-03-28T02:48:04.317Z,9.28
2018-03-28T02:50:31.704Z,9.23
2018-03-28T02:52:59.106Z,9.18
2018-03-28T02:55:26.480Z,9.22
2018-03-28T02:57:53.894Z,9.13
2018-03-28T03:00:21.276Z,9.22
2018-03-28T03:02:48.676Z,9.20
2018-03-28T03:05:16.064Z,9.18
2018-03-28T03:07:43.465Z,9.21
2018-03-28T03:10:10.849Z,9.21
2018-03-28T03:12:38.232Z,9.20
2018-03-28T03:15:05.621Z,9.25
2018-03-28T03:17:33.013Z,9.15
2018-03-28T03:20:00.404Z,9.21
2018-03-28T03:22:27.804Z,9.24
2018-03-28T03:24:55.197Z,9.26
2018-03-28T03:27:22.575Z,9.21
2018-03-28T03:29:49.968Z,9.20
2018-03-28T03:32:17.362Z,9.24
2018-03-28T03:34:44.750Z,9.20
2018-03-28T03:37:12.134Z,9.22
2018-03-28T03:39:39.529Z,9.24
2018-03-28T03:42:06.907Z,9.24
2018-03-28T03:44:34.292Z,9.28
2018-03-28T03:47:01.679Z,9.27
2018-03-28T03:49:29.064Z,9.26
2018-03-28T03:51:56.456Z,9.28
2018-03-28T03:54:23.856Z,9.20
2018-03-28T03:56:51.245Z,9.29
2018-03-28T03:59:18.633Z,9.25
2018-03-28T04:01:46.020Z,9.21
2018-03-28T04:04:13.407Z,9.21
2018-03-28T04:06:40.791Z,9.20
2018-03-28T04:09:08.192Z,9.22
2018-03-28T04:11:35.592Z,9.25
2018-03-28T04:14:02.988Z,9.30
2018-03-28T04:16:30.384Z,9.34
2018-03-28T04:18:57.768Z,9.35
2018-03-28T04:21:25.156Z,9.36
2018-03-28T04:23:52.545Z,9.34
2018-03-28T04:26:19.940Z,9.39
2018-03-28T04:28:47.328Z,9.42
2018-03-28T04:31:14.712Z,9.41
2018-03-28T04:33:42.110Z,9.44
2018-03-28T04:36:09.488Z,9.43
2018-03-28T04:38:36.888Z,9.32
2018-03-28T04:41:04.269Z,9.25
2018-03-28T04:43:31.664Z,9.35
2018-03-28T04:45:59.044Z,9.38
2018-03-28T04:48:26.440Z,9.38
2018-03-28T04:50:53.820Z,9.36
2018-03-28T04:53:21.216Z,9.31
2018-03-28T04:55:48.640Z,9.33
2018-03-28T04:58:15.998Z,9.33
2018-03-28T05:00:43.396Z,9.32
2018-03-28T05:03:10.776Z,9.40
2018-03-28T05:05:38.172Z,9.43
2018-03-28T05:08:05.544Z,9.34
2018-03-28T05:10:32.938Z,9.36
2018-03-28T05:13:00.321Z,9.43
2018-03-28T05:15:27.712Z,9.38
2018-03-28T05:17:55.110Z,9.35
2018-03-28T05:20:22.495Z,9.37
2018-03-28T05:22:49.881Z,9.41
2018-03-28T05:25:17.279Z,9.37
2018-03-28T05:27:44.657Z,9.24
2018-03-28T05:30:12.048Z,9.30
2018-03-28T05:32:39.428Z,9.27
2018-03-28T05:35:06.821Z,9.25
2018-03-28T05:37:34.539Z,9.26
2018-03-28T05:40:01.935Z,9.28
2018-03-28T05:42:29.316Z,9.18
2018-03-28T05:44:56.704Z,8.99
2018-03-28T05:47:24.093Z,9.01
2018-03-28T05:49:51.509Z,8.96
2018-03-28T05:52:18.888Z,8.98
2018-03-28T05:54:46.275Z,8.97
2018-03-28T05:57:13.665Z,8.99
2018-03-28T05:59:41.048Z,9.02
2018-03-28T06:02:08.436Z,8.99
2018-03-28T06:04:35.826Z,8.91
2018-03-28T06:07:03.217Z,8.95
2018-03-28T06:09:30.605Z,8.95
2018-03-28T06:11:57.992Z,8.95
2018-03-28T06:14:25.378Z,8.98
2018-03-28T06:16:52.765Z,8.95
2018-03-28T06:19:20.152Z,8.97
2018-03-28T06:21:47.540Z,9.00
2018-03-28T06:24:14.921Z,9.00
2018-03-28T06:26:42.313Z,8.96
2018-03-28T06:29:09.698Z,8.87
2018-03-28T06:31:37.110Z,8.86
2018-03-28T06:34:04.478Z,8.89
2018-03-28T06:36:31.868Z,8.85
2018-03-28T06:38:59.256Z,8.93
2018-03-28T06:41:26.676Z,8.88
2018-03-28T06:43:54.068Z,8.97
2018-03-28T06:46:21.540Z,8.94
2018-03-28T06:48:48.928Z,8.92
2018-03-28T06:51:16.315Z,8.96
2018-03-28T06:53:43.704Z,9.02
2018-03-28T06:56:11.093Z,8.94
2018-03-28T06:58:38.528Z,8.95
2018-03-28T07:01:05.908Z,8.94
2018-03-28T07:03:33.304Z,9.05
2018-03-28T07:06:00.694Z,9.09
2018-03-28T07:08:28.080Z,9.19
2018-03-28T07:10:55.471Z,9.28
2018-03-28T07:13:22.899Z,9.38
2018-03-28T07:15:50.282Z,9.45
2018-03-28T07:18:17.662Z,9.51
2018-03-28T07:20:45.157Z,9.63
2018-03-28T07:23:12.688Z,9.67
2018-03-28T07:25:41.158Z,9.74
2018-03-28T07:28:08.524Z,9.80
2018-03-28T07:30:35.927Z,9.82
2018-03-28T07:33:03.968Z,9.88
2018-03-28T07:35:31.596Z,9.90
2018-03-28T07:37:58.972Z,9.87
2018-03-28T07:40:26.397Z,9.87
2018-03-28T07:42:53.786Z,9.88
2018-03-28T07:45:21.184Z,9.87
2018-03-28T07:47:48.897Z,9.88
2018-03-28T07:50:16.364Z,9.78
2018-03-28T07:52:43.764Z,9.80
2018-03-28T07:55:11.289Z,9.88
2018-03-28T07:57:38.682Z,9.85
2018-03-28T08:00:06.111Z,9.91
2018-03-28T08:02:33.504Z,9.87
2018-03-28T08:05:00.892Z,9.90
2018-03-28T08:07:28.268Z,9.92
2018-03-28T08:09:56.549Z,9.82
2018-03-28T08:12:23.953Z,9.77
2018-03-28T08:14:51.348Z,9.83
2018-03-28T08:17:18.764Z,9.88
2018-03-28T08:19:46.188Z,9.89
2018-03-28T08:22:13.621Z,9.85
2018-03-28T08:24:41.039Z,9.89
2018-03-28T08:27:08.420Z,9.90
2018-03-28T08:29:35.809Z,9.85
2018-03-28T08:32:03.203Z,9.88
2018-03-28T08:34:30.588Z,9.88
2018-03-28T08:36:57.999Z,9.89
2018-03-28T08:39:25.386Z,9.89
2018-03-28T08:41:52.755Z,9.94
2018-03-28T08:44:20.157Z,9.96
2018-03-28T08:46:47.564Z,9.96
2018-03-28T08:49:14.968Z,9.96
2018-03-28T08:51:42.350Z,10.00
2018-03-28T08:54:09.846Z,9.94
2018-03-28T08:56:37.243Z,9.90
2018-03-28T08:59:04.616Z,9.93
2018-03-28T09:01:32.002Z,9.97
2018-03-28T09:03:59.435Z,10.01
2018-03-28T09:06:26.832Z,10.07
2018-03-28T09:08:54.230Z,10.05
2018-03-28T09:11:21.635Z,9.96
2018-03-28T09:13:49.045Z,10.02
2018-03-28T09:16:16.424Z,10.08
2018-03-28T09:18:43.840Z,10.13
2018-03-28T09:21:11.262Z,10.18
2018-03-28T09:23:38.657Z,10.09
2018-03-28T09:26:06.092Z,10.12
2018-03-28T09:28:33.444Z,10.15
2018-03-28T09:31:00.850Z,10.17
2018-03-28T09:33:28.272Z,10.16
2018-03-28T09:35:55.675Z,10.23
2018-03-28T09:38:23.064Z,10.17
2018-03-28T09:40:50.460Z,10.32
2018-03-28T09:43:17.864Z,10.30
2018-03-28T09:45:45.287Z,10.23
2018-03-28T09:48:12.676Z,10.37
2018-03-28T09:50:40.082Z,10.43
2018-03-28T09:53:07.483Z,10.44
2018-03-28T09:55:34.871Z,10.46
2018-03-28T09:58:02.272Z,10.54
2018-03-28T10:00:29.692Z,10.64
2018-03-28T10:03:02.587Z,10.73
2018-03-28T10:05:35.498Z,10.85
2018-03-28T10:08:02.897Z,10.95
2018-03-28T10:10:30.306Z,10.97
2018-03-28T10:12:57.725Z,11.13
2018-03-28T10:15:25.105Z,11.41
2018-03-28T10:17:52.548Z,11.51
2018-03-28T10:20:19.945Z,11.66
2018-03-28T10:22:47.400Z,11.82
2018-03-28T10:25:14.785Z,11.98
2018-03-28T10:27:42.184Z,11.96
2018-03-28T10:30:09.588Z,11.93
2018-03-28T10:32:36.980Z,11.85
2018-03-28T10:35:04.378Z,11.70
2018-03-28T10:37:31.763Z,11.52
2018-03-28T10:39:59.169Z,11.47
2018-03-28T10:42:26.548Z,11.51
2018-03-28T10:44:53.946Z,11.46
2018-03-28T10:47:21.325Z,11.51
2018-03-28T10:49:48.728Z,11.49
2018-03-28T10:52:16.123Z,11.55
2018-03-28T10:54:44.576Z,11.58
2018-03-28T10:57:11.964Z,11.63
2018-03-28T10:59:39.372Z,11.82
2018-03-28T11:02:06.753Z,11.90
2018-03-28T11:04:34.165Z,12.00
2018-03-28T11:07:01.549Z,11.95
2018-03-28T11:09:28.943Z,12.01
2018-03-28T11:11:56.383Z,12.07
2018-03-28T11:14:23.810Z,12.07
2018-03-28T11:16:51.210Z,12.03
2018-03-28T11:19:18.589Z,11.91
2018-03-28T11:21:45.985Z,11.90
2018-03-28T11:24:13.416Z,11.79
2018-03-28T11:26:40.827Z,11.73
2018-03-28T11:29:08.208Z,11.59
2018-03-28T11:31:35.684Z,11.55
2018-03-28T11:34:03.079Z,11.68
2018-03-28T11:36:30.479Z,11.82
2018-03-28T11:38:57.892Z,11.90
2018-03-28T11:41:25.296Z,11.91
2018-03-28T11:43:52.700Z,12.05
2018-03-28T11:46:20.158Z,12.14
2018-03-28T11:48:47.548Z,12.17
2018-03-28T11:51:14.952Z,12.17
2018-03-28T11:53:42.432Z,12.02
2018-03-28T11:56:09.877Z,12.04
2018-03-28T11:58:37.323Z,12.10
2018-03-28T12:01:04.711Z,12.12
2018-03-28T12:03:32.104Z,12.12
2018-03-28T12:05:59.565Z,12.05
2018-03-28T12:08:27.013Z,11.93
2018-03-28T12:10:54.423Z,11.89
2018-03-28T12:13:21.820Z,11.59
2018-03-28T12:15:49.221Z,11.33
2018-03-28T12:18:16.642Z,11.35
2018-03-28T12:20:44.035Z,11.29
2018-03-28T12:23:11.405Z,11.22
2018-03-28T12:25:38.792Z,11.36
2018-03-28T12:28:06.232Z,11.19
2018-03-28T12:30:33.618Z,11.15
2018-03-28T12:33:01.029Z,11.21
2018-03-28T12:35:28.438Z,11.18
2018-03-28T12:37:55.829Z,11.14
2018-03-28T12:40:23.224Z,11.16
2018-03-28T12:42:50.593Z,11.13
2018-03-28T12:45:18.020Z,11.18
2018-03-28T12:47:45.430Z,11.18
2018-03-28T12:50:12.872Z,11.14
2018-03-28T12:52:40.326Z,11.03
2018-03-28T12:55:07.756Z,10.96
2018-03-28T12:57:35.174Z,10.98
2018-03-28T13:00:02.576Z,10.99
2018-03-28T13:02:30.021Z,10.78
2018-03-28T13:04:57.399Z,10.68
2018-03-28T13:07:24.852Z,10.52
2018-03-28T13:09:52.229Z,10.31
2018-03-28T13:12:19.623Z,10.15
2018-03-28T13:14:47.012Z,10.08
2018-03-28T13:17:14.468Z,10.03
2018-03-28T13:19:41.932Z,10.03
2018-03-28T13:22:09.316Z,9.94
2018-03-28T13:24:36.736Z,9.85
2018-03-28T13:27:04.153Z,9.86
2018-03-28T13:29:31.529Z,9.89
2018-03-28T13:31:58.924Z,9.96
2018-03-28T13:34:26.388Z,9.91
2018-03-28T13:36:53.816Z,9.92
2018-03-28T13:39:21.200Z,10.02
2018-03-28T13:41:48.629Z,9.95
2018-03-28T13:44:15.993Z,9.87
2018-03-28T13:46:43.500Z,9.74
2018-03-28T13:49:10.900Z,9.81
2018-03-28T13:51:38.286Z,9.69
2018-03-28T13:54:05.684Z,9.73
2018-03-28T13:56:34.289Z,9.60
2018-03-28T13:59:01.671Z,9.64
2018-03-28T14:01:29.767Z,9.68
2018-03-28T14:03:57.144Z,9.65
2018-03-28T14:06:24.551Z,9.72
2018-03-28T14:08:51.944Z,9.75
2018-03-28T14:11:19.376Z,9.72
2018-03-28T14:13:46.796Z,9.66
2018-03-28T14:16:14.188Z,9.62
2018-03-28T14:18:41.616Z,9.68
2018-03-28T14:21:09.019Z,9.68
2018-03-28T14:23:37.316Z,9.72
2018-03-28T14:26:04.712Z,9.59
2018-03-28T14:28:32.127Z,9.62
2018-03-28T14:30:59.504Z,9.67
2018-03-28T14:33:27.000Z,9.61
2018-03-28T14:35:54.424Z,9.57
2018-03-28T14:38:21.830Z,9.56
2018-03-28T14:40:49.260Z,9.62
2018-03-28T14:43:16.642Z,9.49
2018-03-28T14:45:44.035Z,9.49
2018-03-28T14:48:18.799Z,9.49
2018-03-28T14:50:46.187Z,9.54
2018-03-28T14:53:13.584Z,9.43
2018-03-28T14:55:41.060Z,9.42
2018-03-28T14:58:08.451Z,9.39
2018-03-28T15:00:35.985Z,9.44
2018-03-28T15:03:03.464Z,9.48
2018-03-28T15:05:30.849Z,9.53
2018-03-28T15:07:58.281Z,9.48
2018-03-28T15:10:25.707Z,9.55
2018-03-28T15:12:53.088Z,9.48
2018-03-28T15:15:20.506Z,9.38
2018-03-28T15:17:47.882Z,9.55
2018-03-28T15:20:15.313Z,9.51
2018-03-28T15:22:42.729Z,9.62
2018-03-28T15:25:10.144Z,9.67
2018-03-28T15:27:37.536Z,9.74
2018-03-28T15:30:04.934Z,9.66
2018-03-28T15:32:32.343Z,9.65
2018-03-28T15:34:59.715Z,9.69
2018-03-28T15:37:31.328Z,9.75
2018-03-28T15:39:58.757Z,9.90
2018-03-28T15:42:26.135Z,10.04
2018-03-28T15:44:53.572Z,10.10
2018-03-28T15:47:20.960Z,10.16
2018-03-28T15:49:48.345Z,10.24
2018-03-28T15:52:15.762Z,10.22
2018-03-28T15:54:43.145Z,10.15
2018-03-28T15:57:10.521Z,10.02
2018-03-28T15:59:38.048Z,9.97
2018-03-28T16:02:05.509Z,10.00
2018-03-28T16:04:32.928Z,10.02
2018-03-28T16:07:00.345Z,10.01
2018-03-28T16:09:27.736Z,10.09
2018-03-28T16:11:55.155Z,10.06
2018-03-28T16:14:22.572Z,9.95
2018-03-28T16:16:50.008Z,9.82
2018-03-28T16:19:17.409Z,9.82
2018-03-28T16:21:44.797Z,9.84
2018-03-28T16:24:12.196Z,9.81
2018-03-28T16:26:39.601Z,9.75
2018-03-28T16:29:07.005Z,9.72
2018-03-28T16:31:34.419Z,9.75
2018-03-28T16:34:01.802Z,9.84
2018-03-28T16:36:29.188Z,9.80
2018-03-28T16:38:56.618Z,9.87
2018-03-28T16:41:23.992Z,9.88
2018-03-28T16:43:51.410Z,9.83
2018-03-28T16:46:18.813Z,9.80
2018-03-28T16:48:46.954Z,9.83
2018-03-28T16:51:14.383Z,9.93
2018-03-28T16:53:42.896Z,9.86
2018-03-28T16:56:10.404Z,9.95
2018-03-28T16:58:37.796Z,9.87
2018-03-28T17:01:05.190Z,9.83
2018-03-28T17:03:32.589Z,9.82
2018-03-28T17:05:59.985Z,9.87
2018-03-28T17:08:28.153Z,9.96
2018-03-28T17:10:55.588Z,9.88
2018-03-28T17:13:23.525Z,9.80
2018-03-28T17:15:50.965Z,9.85
2018-03-28T17:18:18.342Z,9.91
2018-03-28T17:20:45.749Z,9.95
2018-03-28T17:23:13.143Z,10.01
2018-03-28T17:25:40.515Z,9.96
2018-03-28T17:28:07.935Z,9.90
2018-03-28T17:30:35.308Z,9.97
2018-03-28T17:33:02.731Z,10.03
2018-03-28T17:35:30.680Z,10.04
2018-03-28T17:37:58.256Z,10.10
2018-03-28T17:40:25.657Z,10.14
2018-03-28T17:42:53.091Z,10.21
2018-03-28T17:45:20.428Z,10.17
2018-03-28T17:47:47.827Z,10.18
2018-03-28T17:50:15.216Z,10.22
2018-03-28T17:52:42.613Z,10.24
2018-03-28T17:55:10.044Z,10.18
2018-03-28T17:57:37.436Z,10.17
2018-03-28T18:00:04.848Z,10.15
2018-03-28T18:02:32.268Z,10.23
2018-03-28T18:04:59.659Z,10.26
2018-03-28T18:07:27.032Z,10.24
2018-03-28T18:09:54.546Z,10.33
2018-03-28T18:12:21.922Z,10.32
2018-03-28T18:14:49.300Z,10.38
2018-03-28T18:17:16.705Z,10.37
2018-03-28T18:19:44.128Z,10.39
2018-03-28T18:22:11.503Z,10.40
2018-03-28T18:24:38.896Z,10.32
2018-03-28T18:27:06.294Z,10.31
2018-03-28T18:29:33.701Z,10.26
2018-03-28T18:32:01.077Z,10.30
2018-03-28T18:34:28.483Z,10.34
2018-03-28T18:36:55.886Z,10.32
2018-03-28T18:39:23.292Z,10.23
2018-03-28T18:41:50.684Z,10.19
2018-03-28T18:44:18.097Z,10.16
2018-03-28T18:46:45.485Z,10.09
2018-03-28T18:49:12.915Z,10.05
2018-03-28T18:51:40.339Z,9.92
2018-03-28T18:54:07.693Z,9.80
2018-03-28T18:56:35.076Z,9.79
2018-03-28T18:59:02.490Z,9.84
2018-03-28T19:01:29.873Z,9.73
2018-03-28T19:03:57.257Z,9.56
2018-03-28T19:06:24.638Z,9.31
2018-03-28T19:08:52.027Z,8.92
2018-03-28T19:11:20.924Z,8.77
2018-03-28T19:13:49.212Z,8.52
2018-03-28T19:16:17.444Z,8.38
2018-03-28T19:18:45.835Z,8.26
2018-03-28T19:21:13.319Z,8.26
2018-03-28T19:23:40.704Z,8.18
2018-03-28T19:26:08.079Z,8.08
2018-03-28T19:28:35.474Z,8.05
2018-03-28T19:31:03.876Z,8.00
2018-03-28T19:33:31.293Z,7.96
2018-03-28T19:35:58.668Z,7.88
2018-03-28T19:38:26.129Z,7.80
2018-03-28T19:40:53.580Z,7.70
2018-03-28T19:43:20.985Z,7.59
2018-03-28T19:45:48.397Z,7.58
2018-03-28T19:48:15.765Z,7.58
2018-03-28T19:50:43.145Z,7.70
2018-03-28T19:53:10.538Z,7.62
2018-03-28T19:55:37.925Z,7.50
2018-03-28T19:58:05.292Z,7.58
2018-03-28T20:00:32.749Z,7.58
2018-03-28T20:03:00.078Z,7.45
2018-03-28T20:05:27.449Z,7.52
2018-03-28T20:07:54.833Z,7.53
2018-03-28T20:10:22.217Z,7.34
2018-03-28T20:12:49.624Z,7.18
2018-03-28T20:15:17.032Z,7.21
2018-03-28T20:17:44.429Z,7.12
2018-03-28T20:20:11.816Z,7.12
2018-03-28T20:22:39.201Z,6.98
2018-03-28T20:25:06.613Z,6.98
2018-03-28T20:27:33.994Z,6.95
2018-03-28T20:30:01.381Z,7.03
2018-03-28T20:32:28.756Z,6.93
2018-03-28T20:34:56.156Z,6.89
2018-03-28T20:37:23.544Z,6.87
2018-03-28T20:39:50.945Z,6.85
2018-03-28T20:42:18.320Z,6.79
2018-03-28T20:44:45.738Z,6.73
2018-03-28T20:47:13.109Z,6.73
2018-03-28T20:49:40.527Z,6.82
2018-03-28T20:52:08.090Z,6.77
2018-03-28T20:54:35.492Z,6.73
2018-03-28T20:57:02.868Z,6.72
2018-03-28T20:59:30.264Z,6.71
2018-03-28T21:01:57.652Z,6.59
2018-03-28T21:04:25.040Z,6.52
2018-03-28T21:06:52.434Z,6.37
2018-03-28T21:09:19.810Z,6.38
2018-03-28T21:11:47.191Z,6.30
2018-03-28T21:14:14.594Z,6.20
2018-03-28T21:16:42.004Z,6.12
2018-03-28T21:19:09.376Z,6.17
2018-03-28T21:21:36.804Z,6.16
2018-03-28T21:24:04.192Z,6.12
2018-03-28T21:26:31.585Z,6.14
2018-03-28T21:28:58.971Z,6.07
2018-03-28T21:31:26.392Z,6.00
2018-03-28T21:33:53.775Z,5.91
2018-03-28T21:36:21.152Z,5.96
2018-03-28T21:38:48.555Z,5.96
2018-03-28T21:41:15.928Z,5.95
2018-03-28T21:43:43.362Z,5.93
2018-03-28T21:46:10.732Z,5.87
2018-03-28T21:48:38.158Z,6.01
2018-03-28T21:51:05.540Z,5.96
2018-03-28T21:53:33.197Z,5.98
2018-03-28T21:56:00.604Z,5.77
2018-03-28T21:58:27.996Z,5.75
2018-03-28T22:00:55.378Z,5.85
2018-03-28T22:03:22.768Z,5.79
2018-03-28T22:05:50.152Z,5.68
2018-03-28T22:08:17.534Z,5.70
2018-03-28T22:10:44.905Z,5.66
2018-03-28T22:13:12.320Z,5.66
2018-03-28T22:15:39.696Z,5.80
2018-03-28T22:18:07.080Z,5.79
2018-03-28T22:20:34.486Z,5.72
2018-03-28T22:23:01.845Z,5.65
2018-03-28T22:25:29.229Z,5.72
2018-03-28T22:27:56.620Z,5.66
2018-03-28T22:30:24.012Z,5.59
2018-03-28T22:32:51.404Z,5.71
2018-03-28T22:35:18.788Z,5.76
2018-03-28T22:37:46.183Z,5.79
2018-03-28T22:40:13.581Z,5.71
2018-03-28T22:42:40.980Z,5.69
2018-03-28T22:45:08.367Z,5.68
2018-03-28T22:47:35.760Z,5.67
2018-03-28T22:50:03.146Z,5.72
2018-03-28T22:52:30.536Z,5.62
2018-03-28T22:54:57.941Z,5.67
2018-03-28T22:57:25.345Z,5.56
2018-03-28T22:59:52.732Z,5.52
2018-03-28T23:02:20.124Z,5.55
2018-03-28T23:04:47.500Z,5.56
2018-03-28T23:07:14.953Z,5.51
2018-03-28T23:09:42.315Z,5.58
2018-03-28T23:12:09.966Z,5.45
2018-03-28T23:14:37.340Z,5.46
2018-03-28T23:17:04.729Z,5.42
2018-03-28T23:19:32.113Z,5.44
2018-03-28T23:21:59.521Z,5.42
2018-03-28T23:24:26.892Z,5.48
2018-03-28T23:26:54.297Z,5.54
2018-03-28T23:29:21.672Z,5.57
2018-03-28T23:31:49.096Z,5.48
2018-03-28T23:34:16.502Z,5.43
2018-03-28T23:36:43.925Z,5.36
2018-03-28T23:39:11.345Z,5.43
2018-03-28T23:41:38.714Z,5.42
2018-03-28T23:44:06.121Z,5.47
2018-03-28T23:46:33.500Z,5.49
2018-03-28T23:49:00.916Z,5.38
2018-03-28T23:51:28.381Z,5.30
2018-03-28T23:53:55.756Z,5.25
2018-03-28T23:56:23.148Z,5.35
2018-03-28T23:58:50.540Z,5.41
